Time;durP1;ratioP1;P1;durP2;ratioP2;P2;SDS_P1;SDS_P2;PMS_P1;PMS_P2;Temp;Humidity;BMP_temperature;BMP_pressure;BME280_temperature;BME280_humidity;BME280_pressure;Samples;Min_cycle;Max_cycle;Signal;HPM_P1;HPM_P2
2022/03/09 00:00:18;;;;;;;9.93;6.17;;;-1.90;99.90;;;;;;4992184;28;20205;-70
2022/03/09 00:02:44;;;;;;;15.00;6.80;;;-2.00;99.90;;;;;;5009629;28;20569;-70
2022/03/09 00:05:10;;;;;;;10.17;6.17;;;-2.00;99.90;;;;;;5008686;28;20179;-71
2022/03/09 00:07:35;;;;;;;9.43;6.10;;;-2.00;99.90;;;;;;4992384;28;20376;-70
2022/03/09 00:10:02;;;;;;;8.87;4.83;;;-2.00;99.90;;;;;;5008469;28;20231;-70
2022/03/09 00:12:28;;;;;;;9.70;6.10;;;-2.00;99.90;;;;;;5009578;28;20197;-71
2022/03/09 00:14:53;;;;;;;13.73;6.40;;;-2.10;99.90;;;;;;5007997;28;20479;-71
2022/03/09 00:17:19;;;;;;;11.00;6.30;;;-2.10;99.90;;;;;;5009765;28;20206;-71
2022/03/09 00:19:44;;;;;;;9.63;6.20;;;-2.10;99.90;;;;;;5010694;28;20174;-71
2022/03/09 00:22:10;;;;;;;9.67;6.43;;;-2.10;99.90;;;;;;4995313;28;20698;-71
2022/03/09 00:24:35;;;;;;;10.40;6.40;;;-2.10;99.90;;;;;;5011524;28;20180;-71
2022/03/09 00:27:01;;;;;;;8.57;5.87;;;-2.10;99.90;;;;;;5013832;28;20173;-70
2022/03/09 00:29:27;;;;;;;10.33;6.10;;;-2.10;99.90;;;;;;5012025;28;20209;-71
2022/03/09 00:31:53;;;;;;;12.23;5.70;;;-2.10;99.90;;;;;;5012243;28;20613;-70
2022/03/09 00:34:18;;;;;;;9.63;6.07;;;-2.20;99.90;;;;;;5012235;28;20204;-70
2022/03/09 00:36:44;;;;;;;12.13;6.60;;;-2.20;99.90;;;;;;5013588;28;20262;-71
2022/03/09 00:39:10;;;;;;;19.63;5.63;;;-2.10;99.90;;;;;;5013157;28;20790;-71
2022/03/09 00:41:36;;;;;;;10.40;6.10;;;-2.20;99.90;;;;;;5011558;28;20439;-70
2022/03/09 00:44:02;;;;;;;9.47;5.10;;;-2.20;99.90;;;;;;5011041;28;20175;-71
2022/03/09 00:46:28;;;;;;;11.20;6.30;;;-2.20;99.90;;;;;;5011748;28;20185;-71
2022/03/09 00:48:53;;;;;;;8.20;4.90;;;-2.30;99.90;;;;;;5011918;28;20421;-70
2022/03/09 00:51:19;;;;;;;9.00;5.03;;;-2.30;99.90;;;;;;5012478;28;20709;-71
2022/03/09 00:53:45;;;;;;;8.53;5.40;;;-2.30;99.90;;;;;;5011013;28;20232;-71
2022/03/09 00:56:10;;;;;;;5.60;4.87;;;-2.30;99.90;;;;;;5013432;28;20189;-71
2022/03/09 00:58:36;;;;;;;5.90;4.10;;;-2.30;99.90;;;;;;5011362;28;20423;-71
2022/03/09 01:01:01;;;;;;;8.97;5.30;;;-2.40;99.90;;;;;;5011511;28;20265;-70
2022/03/09 01:03:27;;;;;;;7.23;5.80;;;-2.40;99.90;;;;;;5010149;28;20243;-71
2022/03/09 01:05:52;;;;;;;11.30;6.77;;;-2.40;99.90;;;;;;5011973;28;20179;-71
2022/03/09 01:08:18;;;;;;;26.67;6.20;;;-2.40;99.90;;;;;;5011208;28;20259;-70
2022/03/09 01:10:43;;;;;;;11.43;5.77;;;-2.40;99.90;;;;;;5011319;28;20175;-70
2022/03/09 01:13:09;;;;;;;9.80;5.50;;;-2.40;99.90;;;;;;5011967;28;20216;-71
2022/03/09 01:15:35;;;;;;;14.33;5.67;;;-2.40;99.90;;;;;;5011089;28;20686;-70
2022/03/09 01:18:00;;;;;;;10.47;5.90;;;-2.40;99.90;;;;;;5011342;28;20176;-71
2022/03/09 01:20:26;;;;;;;9.53;6.43;;;-2.50;99.90;;;;;;4994768;28;20210;-71
2022/03/09 01:22:52;;;;;;;7.20;6.07;;;-2.50;99.90;;;;;;5010206;28;20196;-71
2022/03/09 01:25:18;;;;;;;11.57;6.13;;;-2.50;99.90;;;;;;4994994;28;20267;-70
2022/03/09 01:27:44;;;;;;;10.33;5.80;;;-2.40;99.90;;;;;;4994709;28;20554;-71
2022/03/09 01:30:10;;;;;;;10.57;6.30;;;-2.40;99.90;;;;;;5011180;28;20430;-72
2022/03/09 01:32:35;;;;;;;11.87;6.73;;;-2.50;99.90;;;;;;5010511;28;20219;-71
2022/03/09 01:35:01;;;;;;;7.60;5.70;;;-2.50;99.90;;;;;;4994400;28;20407;-71
2022/03/09 01:37:27;;;;;;;10.90;6.43;;;-2.50;99.90;;;;;;5010259;28;20187;-71
2022/03/09 01:39:52;;;;;;;12.83;6.10;;;-2.50;99.90;;;;;;5011319;28;20426;-71
2022/03/09 01:42:18;;;;;;;11.60;5.33;;;-2.50;99.90;;;;;;4994070;28;20211;-71
2022/03/09 01:44:44;;;;;;;6.90;5.30;;;-2.60;99.90;;;;;;4993793;28;20177;-71
2022/03/09 01:47:09;;;;;;;11.67;5.13;;;-2.60;99.90;;;;;;5011680;28;20174;-71
2022/03/09 01:49:36;;;;;;;11.40;5.57;;;-2.60;99.90;;;;;;4994135;28;20190;-70
2022/03/09 01:52:02;;;;;;;12.97;6.27;;;-2.60;99.90;;;;;;4994584;28;20223;-71
2022/03/09 01:54:29;;;;;;;10.50;6.27;;;-2.60;99.90;;;;;;5011156;28;20385;-71
2022/03/09 01:56:55;;;;;;;8.27;4.80;;;-2.60;99.90;;;;;;5011391;28;20790;-71
2022/03/09 01:59:21;;;;;;;9.83;6.20;;;-2.60;99.90;;;;;;5011741;28;20783;-71
2022/03/09 03:32:24;;;;;;;15.80;6.33;;;-3.30;99.90;;;;;;5308455;22;20505;-73
2022/03/09 03:34:49;;;;;;;11.70;7.23;;;-3.30;99.90;;;;;;5001702;28;20465;-72
2022/03/09 03:37:15;;;;;;;12.57;7.37;;;-3.40;99.90;;;;;;5010417;28;20237;-71
2022/03/09 03:39:40;;;;;;;11.60;6.10;;;-3.40;99.90;;;;;;5006102;28;20272;-72
2022/03/09 03:42:06;;;;;;;9.60;5.53;;;-3.40;99.90;;;;;;4975861;28;20647;-70
2022/03/09 03:44:32;;;;;;;9.73;6.60;;;-3.40;99.90;;;;;;4970519;28;20184;-70
2022/03/09 03:46:57;;;;;;;9.90;6.07;;;-3.40;99.90;;;;;;4972182;28;20439;-70
2022/03/09 03:49:23;;;;;;;11.00;6.97;;;-3.50;99.90;;;;;;4971232;28;20642;-70
2022/03/09 03:51:48;;;;;;;10.73;5.73;;;-3.50;99.90;;;;;;4973448;28;20214;-71
2022/03/09 03:54:14;;;;;;;10.80;6.60;;;-3.50;99.90;;;;;;4991087;28;20266;-69
2022/03/09 03:56:40;;;;;;;10.93;5.63;;;-3.50;99.90;;;;;;4992915;28;20680;-70
2022/03/09 03:59:05;;;;;;;8.83;4.50;;;-3.50;99.90;;;;;;4994715;28;20184;-71
2022/03/09 04:01:30;;;;;;;13.50;4.87;;;-3.50;99.90;;;;;;4993845;28;20212;-71
2022/03/09 04:03:56;;;;;;;11.23;5.77;;;-3.60;99.90;;;;;;4989879;28;20202;-70
2022/03/09 04:06:21;;;;;;;14.10;6.00;;;-3.60;99.90;;;;;;4991565;28;20270;-70
2022/03/09 04:08:47;;;;;;;11.17;5.77;;;-3.60;99.90;;;;;;4992693;28;20253;-70
2022/03/09 04:11:12;;;;;;;11.20;5.90;;;-3.60;99.90;;;;;;4995311;28;20199;-71
2022/03/09 04:13:38;;;;;;;8.03;5.70;;;-3.60;99.90;;;;;;4992905;28;20657;-70
2022/03/09 04:16:04;;;;;;;11.83;6.13;;;-3.70;99.90;;;;;;4992791;28;20192;-71
2022/03/09 04:18:30;;;;;;;7.33;5.07;;;-3.70;99.90;;;;;;4993093;28;20452;-70
2022/03/09 04:20:55;;;;;;;14.20;6.83;;;-3.70;99.90;;;;;;4991778;28;20211;-71
2022/03/09 04:23:20;;;;;;;10.17;6.83;;;-3.70;99.90;;;;;;4994176;28;20183;-71
2022/03/09 04:25:46;;;;;;;10.43;5.73;;;-3.70;99.90;;;;;;4990806;28;20532;-71
2022/03/09 04:28:12;;;;;;;11.53;7.27;;;-3.70;99.90;;;;;;4994680;28;20267;-72
2022/03/09 04:30:38;;;;;;;11.90;7.00;;;-3.80;99.90;;;;;;4991684;28;20325;-71
2022/03/09 04:33:04;;;;;;;6.67;5.10;;;-3.80;99.90;;;;;;4993243;28;20191;-70
2022/03/09 04:35:29;;;;;;;13.43;6.07;;;-3.80;99.90;;;;;;4992278;28;20765;-70
2022/03/09 04:37:55;;;;;;;10.50;6.50;;;-3.80;99.90;;;;;;4988955;28;20567;-70
2022/03/09 04:40:20;;;;;;;13.70;6.40;;;-3.90;99.90;;;;;;4987183;28;20192;-71
2022/03/09 04:42:46;;;;;;;8.43;5.60;;;-3.90;99.90;;;;;;4990176;28;20212;-70
2022/03/09 04:45:11;;;;;;;7.70;5.27;;;-3.90;99.90;;;;;;4993709;28;20171;-71
2022/03/09 04:47:37;;;;;;;14.90;7.50;;;-3.90;99.90;;;;;;4988023;28;20216;-71
2022/03/09 04:50:03;;;;;;;13.30;6.00;;;-3.80;99.90;;;;;;4991249;28;20271;-70
2022/03/09 04:52:28;;;;;;;9.83;6.50;;;-3.90;99.90;;;;;;4989073;28;20787;-70
2022/03/09 04:54:54;;;;;;;12.90;5.83;;;-4.00;99.90;;;;;;4992384;28;20839;-70
2022/03/09 04:57:19;;;;;;;10.83;6.40;;;-4.00;99.90;;;;;;4986987;28;20659;-71
2022/03/09 04:59:45;;;;;;;10.90;6.43;;;-4.00;99.90;;;;;;4993353;28;20270;-70
2022/03/09 05:02:11;;;;;;;12.13;6.10;;;-4.00;99.90;;;;;;4993177;28;20238;-69
2022/03/09 05:04:36;;;;;;;14.60;6.80;;;-4.10;99.90;;;;;;4987183;28;20184;-72
2022/03/09 05:07:03;;;;;;;12.03;7.17;;;-4.00;99.90;;;;;;4990137;28;20207;-71
2022/03/09 05:09:28;;;;;;;7.43;5.50;;;-4.10;99.90;;;;;;4990182;28;20187;-70
2022/03/09 05:11:54;;;;;;;12.73;6.13;;;-4.10;99.90;;;;;;4992832;28;20406;-70
2022/03/09 05:14:19;;;;;;;9.63;5.40;;;-4.10;99.90;;;;;;4992317;28;20203;-71
2022/03/09 05:16:45;;;;;;;13.17;6.87;;;-4.10;99.90;;;;;;4991295;28;20223;-71
2022/03/09 05:19:10;;;;;;;10.77;6.13;;;-4.10;99.90;;;;;;4992612;28;20210;-71
2022/03/09 05:21:36;;;;;;;9.60;5.80;;;-4.20;99.90;;;;;;4985861;28;20215;-70
2022/03/09 05:24:02;;;;;;;9.37;6.00;;;-4.10;99.90;;;;;;4992610;28;20557;-71
2022/03/09 05:26:27;;;;;;;10.07;5.50;;;-4.10;99.90;;;;;;4990847;28;20176;-72
2022/03/09 05:28:53;;;;;;;12.10;6.47;;;-4.10;99.90;;;;;;4992412;28;20172;-69
2022/03/09 05:31:19;;;;;;;14.00;5.90;;;-4.10;99.90;;;;;;4990790;28;20215;-70
2022/03/09 05:33:45;;;;;;;7.47;5.40;;;-4.10;99.90;;;;;;4989963;28;20483;-70
2022/03/09 05:36:10;;;;;;;12.73;6.07;;;-4.10;99.90;;;;;;4990240;28;20191;-71
2022/03/09 05:38:36;;;;;;;9.60;5.60;;;-4.10;99.90;;;;;;4990241;28;20675;-71
2022/03/09 05:41:02;;;;;;;9.30;5.20;;;-4.10;99.90;;;;;;4992022;28;20215;-70
2022/03/09 05:43:27;;;;;;;9.70;5.40;;;-4.20;99.90;;;;;;4988918;28;20640;-70
2022/03/09 05:45:53;;;;;;;10.90;6.50;;;-4.20;99.90;;;;;;4991618;28;20266;-74
2022/03/09 05:48:19;;;;;;;12.07;6.63;;;-4.20;99.90;;;;;;4989827;28;20221;-74
2022/03/09 05:50:44;;;;;;;16.23;6.80;;;-4.10;99.90;;;;;;4992625;28;20925;-74
2022/03/09 05:53:10;;;;;;;15.03;6.93;;;-4.00;99.90;;;;;;4989742;28;20187;-74
2022/03/09 05:55:35;;;;;;;12.73;7.00;;;-4.00;99.90;;;;;;4988445;28;20180;-74
2022/03/09 05:58:01;;;;;;;11.77;6.10;;;-3.90;99.90;;;;;;4991945;28;20179;-74
2022/03/09 06:00:26;;;;;;;10.40;6.37;;;-3.90;99.90;;;;;;4989815;28;20567;-75
2022/03/09 06:02:52;;;;;;;10.90;7.37;;;-3.80;99.90;;;;;;4991026;28;20684;-74
2022/03/09 06:05:17;;;;;;;14.87;6.83;;;-3.80;99.90;;;;;;4982980;28;20557;-75
2022/03/09 06:07:43;;;;;;;12.47;8.03;;;-3.80;99.90;;;;;;4987429;28;20191;-75
2022/03/09 06:10:09;;;;;;;14.63;6.77;;;-3.70;99.90;;;;;;4991646;28;20184;-75
2022/03/09 06:12:35;;;;;;;12.40;6.70;;;-3.50;99.90;;;;;;4989849;28;20586;-74
2022/03/09 06:15:00;;;;;;;12.23;6.47;;;-2.90;99.90;;;;;;4991953;28;20391;-75
2022/03/09 06:17:26;;;;;;;12.20;5.50;;;-1.80;99.90;;;;;;4987781;28;20187;-76
2022/03/09 06:19:52;;;;;;;8.90;6.77;;;-0.50;99.90;;;;;;4991068;28;20191;-76
2022/03/09 06:22:17;;;;;;;12.77;7.13;;;0.70;99.90;;;;;;4987290;28;20209;-75
2022/03/09 06:24:43;;;;;;;12.53;7.10;;;1.70;99.90;;;;;;4991337;28;20428;-75
2022/03/09 06:27:08;;;;;;;11.70;7.00;;;2.60;99.90;;;;;;4992104;28;20219;-75
2022/03/09 06:29:34;;;;;;;15.03;6.77;;;3.30;99.90;;;;;;4985826;28;20194;-74
2022/03/09 06:32:00;;;;;;;9.33;7.70;;;4.10;99.90;;;;;;4987796;28;20225;-75
2022/03/09 06:34:26;;;;;;;12.07;8.10;;;4.90;99.90;;;;;;4995825;28;20195;-77
2022/03/09 06:36:52;;;;;;;13.37;8.13;;;5.60;99.90;;;;;;4995679;28;20448;-76
2022/03/09 06:39:18;;;;;;;13.33;8.73;;;6.30;99.90;;;;;;4987509;28;20438;-76
2022/03/09 06:41:45;;;;;;;19.50;8.87;;;7.10;99.90;;;;;;4986897;28;20280;-76
2022/03/09 06:44:12;;;;;;;16.63;8.30;;;7.60;99.90;;;;;;4988327;28;20576;-76
2022/03/09 06:46:39;;;;;;;14.23;8.43;;;7.90;99.90;;;;;;4988689;28;20527;-77
2022/03/09 06:49:04;;;;;;;15.10;8.13;;;8.30;99.90;;;;;;4990764;28;20888;-76
2022/03/09 06:51:30;;;;;;;12.27;8.63;;;8.50;99.90;;;;;;4984064;28;20494;-77
2022/03/09 06:53:56;;;;;;;13.57;9.20;;;8.90;99.90;;;;;;4990835;28;20178;-77
2022/03/09 06:56:22;;;;;;;10.27;8.13;;;9.30;99.90;;;;;;4989249;28;20183;-77
2022/03/09 06:58:47;;;;;;;19.50;11.00;;;9.50;99.90;;;;;;4991077;28;20794;-76
2022/03/09 07:01:13;;;;;;;16.30;10.60;;;10.30;99.60;;;;;;4996090;28;20230;-76
2022/03/09 07:03:38;;;;;;;19.73;10.43;;;11.00;97.60;;;;;;4987825;28;20183;-76
2022/03/09 07:06:04;;;;;;;21.13;12.77;;;11.60;96.70;;;;;;4986597;28;20269;-77
2022/03/09 07:08:29;;;;;;;22.07;13.13;;;11.50;95.80;;;;;;4985646;28;20191;-77
2022/03/09 07:10:55;;;;;;;15.77;12.60;;;11.50;94.30;;;;;;4990804;28;20203;-76
2022/03/09 07:13:21;;;;;;;19.30;13.00;;;11.80;93.10;;;;;;4986153;28;21130;-77
2022/03/09 07:15:47;;;;;;;17.93;12.43;;;11.60;92.70;;;;;;4991181;28;20282;-76
2022/03/09 07:18:12;;;;;;;21.37;12.83;;;11.50;92.40;;;;;;4990019;28;20193;-74
2022/03/09 07:20:40;;;;;;;22.50;14.20;;;11.60;93.30;;;;;;4990418;28;20298;-73
2022/03/09 07:23:06;;;;;;;19.20;12.03;;;12.10;91.90;;;;;;4984453;28;20207;-74
2022/03/09 07:25:32;;;;;;;16.53;10.60;;;11.70;91.50;;;;;;4988249;28;20510;-74
2022/03/09 07:27:58;;;;;;;17.30;11.90;;;11.70;91.50;;;;;;4990778;28;20175;-75
2022/03/09 07:30:23;;;;;;;16.67;12.77;;;12.10;91.00;;;;;;4987872;28;20435;-74
2022/03/09 07:32:49;;;;;;;20.33;11.67;;;12.50;90.50;;;;;;4990360;28;20257;-71
2022/03/09 07:35:14;;;;;;;22.70;14.10;;;12.40;89.00;;;;;;4987507;28;20189;-73
2022/03/09 07:37:40;;;;;;;24.10;13.60;;;12.90;88.60;;;;;;4985499;28;20212;-73
2022/03/09 07:40:06;;;;;;;16.50;12.40;;;12.20;87.30;;;;;;4988147;28;20187;-73
2022/03/09 07:42:32;;;;;;;20.87;11.60;;;12.10;88.80;;;;;;4990290;28;20245;-73
2022/03/09 07:44:58;;;;;;;22.27;13.10;;;11.40;88.10;;;;;;4990830;28;20939;-74
2022/03/09 07:47:23;;;;;;;21.27;12.20;;;10.80;89.30;;;;;;4986821;28;20197;-74
2022/03/09 07:49:49;;;;;;;22.93;12.00;;;9.90;91.00;;;;;;4990891;28;20174;-74
2022/03/09 07:52:15;;;;;;;19.53;13.30;;;9.20;91.80;;;;;;4985304;28;20268;-74
2022/03/09 07:54:40;;;;;;;18.10;11.90;;;8.90;92.50;;;;;;4990405;28;20181;-74
2022/03/09 07:57:06;;;;;;;29.30;12.33;;;8.40;92.90;;;;;;4988699;28;20192;-74
2022/03/09 07:59:31;;;;;;;21.60;12.50;;;8.00;93.40;;;;;;4986515;28;20204;-74
2022/03/09 08:01:57;;;;;;;16.00;11.87;;;7.60;93.90;;;;;;4987203;28;20217;-74
2022/03/09 08:04:23;;;;;;;27.33;13.43;;;7.80;94.80;;;;;;4984419;28;20192;-74
2022/03/09 08:06:50;;;;;;;25.73;12.93;;;7.90;94.60;;;;;;4983779;28;20474;-74
2022/03/09 08:09:16;;;;;;;19.40;11.70;;;7.90;95.70;;;;;;4987397;28;20418;-73
2022/03/09 08:11:43;;;;;;;22.80;11.87;;;8.10;94.70;;;;;;4990013;28;20440;-73
2022/03/09 08:14:09;;;;;;;20.93;11.73;;;8.20;94.30;;;;;;4987947;28;20549;-74
2022/03/09 08:16:35;;;;;;;23.70;12.13;;;8.70;94.70;;;;;;4990052;28;20458;-74
2022/03/09 08:19:00;;;;;;;16.47;10.40;;;8.70;93.90;;;;;;4988774;28;20452;-74
2022/03/09 08:21:26;;;;;;;20.97;12.40;;;8.90;94.00;;;;;;4982472;28;20305;-74
2022/03/09 08:23:51;;;;;;;21.43;12.93;;;8.90;94.10;;;;;;4988494;28;20188;-73
2022/03/09 08:26:18;;;;;;;20.07;11.80;;;9.20;93.20;;;;;;4988211;28;20239;-73
2022/03/09 08:28:44;;;;;;;15.67;10.20;;;9.50;93.90;;;;;;4990373;28;20186;-74
2022/03/09 08:31:09;;;;;;;14.67;9.83;;;9.80;91.60;;;;;;4987583;28;20520;-74
2022/03/09 08:33:35;;;;;;;17.47;10.83;;;10.00;91.50;;;;;;4987230;28;20190;-73
2022/03/09 08:36:00;;;;;;;17.50;10.17;;;9.10;90.40;;;;;;4990351;28;20293;-73
2022/03/09 08:38:26;;;;;;;19.43;10.50;;;9.40;91.60;;;;;;4987772;28;20249;-74
2022/03/09 08:40:52;;;;;;;12.17;8.20;;;9.90;91.70;;;;;;4991887;28;20727;-73
2022/03/09 08:43:18;;;;;;;14.17;9.53;;;10.20;90.80;;;;;;4989068;28;20270;-74
2022/03/09 08:45:44;;;;;;;13.73;9.30;;;10.60;89.20;;;;;;4993343;28;20177;-73
2022/03/09 08:48:10;;;;;;;15.37;10.47;;;10.00;89.70;;;;;;4991791;28;20182;-73
2022/03/09 08:50:36;;;;;;;14.50;10.63;;;10.30;90.80;;;;;;4993041;28;20477;-72
2022/03/09 08:53:02;;;;;;;14.83;9.23;;;10.60;90.00;;;;;;4988171;28;20221;-73
2022/03/09 08:55:28;;;;;;;19.67;11.67;;;11.10;89.60;;;;;;4990780;28;20221;-73
2022/03/09 08:57:54;;;;;;;12.03;9.93;;;11.20;88.60;;;;;;4993395;28;20447;-73
2022/03/09 09:00:19;;;;;;;12.57;9.20;;;11.20;89.50;;;;;;4990837;28;20663;-73
2022/03/09 09:02:45;;;;;;;19.53;9.07;;;11.10;88.70;;;;;;4992318;28;20976;-74
2022/03/09 09:05:11;;;;;;;19.10;9.83;;;11.10;87.20;;;;;;4988971;28;20190;-74
2022/03/09 09:07:37;;;;;;;17.80;10.33;;;11.20;85.90;;;;;;4989730;28;20225;-74
2022/03/09 09:10:03;;;;;;;13.00;9.77;;;11.40;88.10;;;;;;4993455;28;20218;-75
2022/03/09 09:12:30;;;;;;;14.57;9.17;;;11.90;87.20;;;;;;4991681;28;20813;-74
2022/03/09 09:14:56;;;;;;;15.67;10.13;;;12.30;85.20;;;;;;4992364;28;20433;-74
2022/03/09 09:17:21;;;;;;;26.03;10.47;;;12.50;85.20;;;;;;4989531;28;20462;-74
2022/03/09 09:19:47;;;;;;;13.43;9.10;;;12.50;85.60;;;;;;4992916;28;20429;-75
2022/03/09 09:22:12;;;;;;;14.43;9.33;;;12.80;84.00;;;;;;4986134;28;20700;-75
2022/03/09 09:24:38;;;;;;;16.40;10.77;;;13.00;83.30;;;;;;4992475;28;20187;-75
2022/03/09 09:27:04;;;;;;;18.10;10.13;;;13.30;83.60;;;;;;4993210;28;20179;-75
2022/03/09 09:29:29;;;;;;;14.20;10.07;;;13.20;81.00;;;;;;4988636;28;20232;-74
2022/03/09 09:31:55;;;;;;;17.50;10.20;;;12.60;79.90;;;;;;4992157;28;20206;-74
2022/03/09 09:34:20;;;;;;;18.30;9.90;;;13.00;80.40;;;;;;4986902;28;20671;-74
2022/03/09 09:36:46;;;;;;;19.73;11.87;;;13.00;80.00;;;;;;4992559;28;20215;-74
2022/03/09 09:39:14;;;;;;;19.13;9.70;;;13.10;80.10;;;;;;4990631;28;20311;-74
2022/03/09 09:41:44;;;;;;;17.10;9.43;;;13.30;79.00;;;;;;4990037;28;21003;-75
2022/03/09 09:44:11;;;;;;;17.33;10.20;;;13.50;79.70;;;;;;4991647;28;20406;-74
2022/03/09 09:46:39;;;;;;;16.40;10.40;;;13.80;80.60;;;;;;4991403;28;20537;-75
2022/03/09 09:49:06;;;;;;;21.07;10.30;;;14.20;78.90;;;;;;4993095;28;20419;-74
2022/03/09 09:51:32;;;;;;;14.20;10.00;;;13.90;76.00;;;;;;4985869;28;20467;-74
2022/03/09 09:53:59;;;;;;;17.00;10.90;;;14.30;77.70;;;;;;4989287;28;20438;-74
2022/03/09 09:56:25;;;;;;;17.00;10.40;;;14.60;77.20;;;;;;4989911;28;20184;-75
2022/03/09 09:58:51;;;;;;;18.27;11.50;;;14.40;75.60;;;;;;4992131;28;20473;-75
2022/03/09 10:01:18;;;;;;;15.33;10.50;;;14.50;74.80;;;;;;4992034;28;20469;-75
2022/03/09 10:03:43;;;;;;;16.50;10.00;;;14.80;76.00;;;;;;4985915;28;20179;-75
2022/03/09 10:06:09;;;;;;;16.50;10.60;;;14.90;77.60;;;;;;4985608;28;20430;-75
2022/03/09 10:08:35;;;;;;;18.97;11.03;;;15.10;74.50;;;;;;4983852;28;20656;-76
2022/03/09 10:11:03;;;;;;;17.43;10.73;;;14.80;74.50;;;;;;4975151;28;20199;-76
2022/03/09 10:13:33;;;;;;;13.93;10.87;;;14.80;77.00;;;;;;4984752;28;20419;-76
2022/03/09 10:16:20;;;;;;;14.53;10.60;;;15.20;76.30;;;;;;4982787;28;21027;-74
2022/03/09 10:18:54;;;;;;;17.23;12.13;;;15.30;72.90;;;;;;4971650;28;20511;-75
2022/03/09 10:21:26;;;;;;;21.60;12.97;;;15.40;73.30;;;;;;4987256;28;20508;-74
2022/03/09 10:23:58;;;;;;;17.60;10.17;;;15.10;72.70;;;;;;4990414;28;20434;-74
2022/03/09 10:26:38;;;;;;;25.10;11.80;;;15.40;73.60;;;;;;4987432;28;20439;-74
2022/03/09 10:29:06;;;;;;;24.53;12.20;;;14.90;70.90;;;;;;4971969;28;20427;-74
2022/03/09 10:31:39;;;;;;;21.00;11.83;;;15.20;74.70;;;;;;4976461;28;20488;-73
2022/03/09 10:34:16;;;;;;;20.20;12.30;;;15.00;72.40;;;;;;4991352;28;20517;-74
2022/03/09 10:36:55;;;;;;;20.37;11.37;;;14.40;70.80;;;;;;4989143;28;20478;-73
2022/03/09 10:39:23;;;;;;;19.10;13.30;;;14.50;73.00;;;;;;4987936;28;20446;-74
2022/03/09 10:41:48;;;;;;;17.10;12.63;;;14.20;71.40;;;;;;4991180;28;20490;-75
2022/03/09 10:44:14;;;;;;;21.60;12.53;;;14.10;72.40;;;;;;4985985;28;20544;-74
2022/03/09 10:46:49;;;;;;;24.27;13.20;;;14.10;72.30;;;;;;4991623;28;20656;-75
2022/03/09 10:49:19;;;;;;;23.70;11.90;;;14.50;72.60;;;;;;4987127;28;20209;-75
2022/03/09 10:51:50;;;;;;;16.50;12.30;;;14.40;72.60;;;;;;4988089;28;21042;-74
2022/03/09 10:54:27;;;;;;;20.90;13.40;;;14.70;72.40;;;;;;4988232;28;20450;-74
2022/03/09 10:57:07;;;;;;;17.33;12.73;;;14.60;72.50;;;;;;4990895;28;20418;-74
2022/03/09 10:59:52;;;;;;;17.10;12.17;;;14.70;72.10;;;;;;4988798;28;20857;-74
2022/03/09 11:02:22;;;;;;;23.50;12.47;;;14.00;72.90;;;;;;4988632;28;20515;-74
2022/03/09 11:05:07;;;;;;;23.70;13.33;;;14.50;72.10;;;;;;4987428;28;20447;-74
2022/03/09 11:07:34;;;;;;;19.63;13.10;;;14.90;71.40;;;;;;4988419;28;20540;-74
2022/03/09 11:10:00;;;;;;;18.97;13.63;;;15.00;71.40;;;;;;4990985;28;20926;-74
2022/03/09 11:12:26;;;;;;;19.87;12.97;;;14.80;70.20;;;;;;4986246;28;20462;-74
2022/03/09 11:14:52;;;;;;;24.63;13.20;;;14.70;70.00;;;;;;4990264;28;20191;-75
2022/03/09 11:17:24;;;;;;;23.43;14.00;;;15.10;71.30;;;;;;4988946;28;20202;-74
2022/03/09 11:19:50;;;;;;;19.50;13.10;;;15.30;70.20;;;;;;4990944;28;21002;-74
2022/03/09 11:22:16;;;;;;;18.47;12.90;;;15.00;67.30;;;;;;4985022;28;20501;-74
2022/03/09 11:24:42;;;;;;;21.63;13.70;;;14.50;68.00;;;;;;4989198;28;20274;-74
2022/03/09 11:27:10;;;;;;;26.03;13.40;;;14.80;70.00;;;;;;4984335;28;20955;-74
2022/03/09 11:29:37;;;;;;;22.27;13.80;;;14.70;66.60;;;;;;4995099;28;20524;-74
2022/03/09 11:32:05;;;;;;;23.17;14.10;;;14.60;66.10;;;;;;4988835;28;20458;-74
2022/03/09 11:34:43;;;;;;;19.27;13.37;;;14.20;64.80;;;;;;4985686;28;20447;-74
2022/03/09 11:37:11;;;;;;;19.43;13.10;;;13.80;65.20;;;;;;4988257;28;20438;-75
2022/03/09 11:39:39;;;;;;;21.40;13.77;;;13.70;65.80;;;;;;4988268;28;20442;-74
2022/03/09 11:42:20;;;;;;;20.83;14.67;;;13.70;66.20;;;;;;4990468;28;20502;-74
2022/03/09 11:44:47;;;;;;;24.00;14.27;;;13.80;66.70;;;;;;4988198;28;20501;-74
2022/03/09 11:47:12;;;;;;;18.77;13.03;;;13.90;66.00;;;;;;4981528;28;20528;-73
2022/03/09 11:49:49;;;;;;;20.23;14.03;;;13.20;65.50;;;;;;4986417;28;20441;-71
2022/03/09 11:52:14;;;;;;;25.50;13.37;;;13.00;66.50;;;;;;4986699;28;20218;-72
2022/03/09 11:54:45;;;;;;;16.57;11.50;;;13.10;67.50;;;;;;4997209;28;20415;-72
2022/03/09 11:57:12;;;;;;;23.70;13.50;;;13.30;65.00;;;;;;4987499;28;20303;-72
2022/03/09 11:59:38;;;;;;;24.07;12.20;;;13.50;66.40;;;;;;4989772;28;20422;-72
2022/03/09 12:02:10;;;;;;;23.10;12.50;;;13.70;67.30;;;;;;4987918;28;20489;-71
2022/03/09 12:04:53;;;;;;;19.40;13.23;;;13.50;67.10;;;;;;4981378;28;20520;-72
2022/03/09 12:07:28;;;;;;;20.10;14.23;;;13.40;64.20;;;;;;4987275;28;20434;-73
2022/03/09 12:09:55;;;;;;;21.77;13.97;;;13.60;69.50;;;;;;4991699;28;20432;-74
2022/03/09 12:12:21;;;;;;;20.43;13.97;;;13.70;68.30;;;;;;4999894;28;20543;-73
2022/03/09 12:15:03;;;;;;;22.80;13.57;;;13.80;70.30;;;;;;4989472;28;20483;-73
2022/03/09 12:17:37;;;;;;;21.23;14.33;;;14.00;68.60;;;;;;5000900;28;20419;-74
2022/03/09 12:20:29;;;;;;;19.90;14.57;;;13.80;69.30;;;;;;4998880;28;20433;-73
2022/03/09 12:22:57;;;;;;;19.23;13.50;;;13.80;68.30;;;;;;4980290;28;20458;-73
2022/03/09 12:25:43;;;;;;;25.43;14.70;;;13.70;68.70;;;;;;4991669;28;20473;-73
2022/03/09 12:28:23;;;;;;;20.83;13.40;;;13.80;68.30;;;;;;4994173;28;20414;-74
2022/03/09 12:31:16;;;;;;;19.23;12.93;;;13.90;67.70;;;;;;4990284;28;20428;-74
2022/03/09 12:33:46;;;;;;;22.43;14.60;;;14.10;68.20;;;;;;5001433;28;20498;-74
2022/03/09 12:36:13;;;;;;;21.67;14.50;;;13.90;67.10;;;;;;5000818;28;20431;-73
2022/03/09 12:38:46;;;;;;;23.00;15.07;;;13.60;67.60;;;;;;5003153;28;20471;-75
2022/03/09 12:41:27;;;;;;;21.43;13.73;;;13.30;66.70;;;;;;4993279;28;20474;-74
2022/03/09 12:43:59;;;;;;;27.23;15.00;;;12.90;66.80;;;;;;4989111;28;20470;-75
2022/03/09 12:46:26;;;;;;;20.00;14.03;;;13.00;68.70;;;;;;4992676;28;20887;-74
2022/03/09 12:49:01;;;;;;;17.57;12.10;;;13.20;68.80;;;;;;4995958;28;20437;-75
2022/03/09 12:51:27;;;;;;;23.37;12.97;;;13.30;64.00;;;;;;4996719;28;20435;-74
2022/03/09 12:53:52;;;;;;;16.20;11.90;;;13.20;64.50;;;;;;4989377;28;20445;-74
2022/03/09 12:56:23;;;;;;;19.97;12.90;;;13.20;66.50;;;;;;4992694;28;20325;-74
2022/03/09 12:58:50;;;;;;;18.03;11.90;;;12.90;62.70;;;;;;4990819;28;20736;-74
2022/03/09 13:01:15;;;;;;;19.90;12.60;;;12.90;63.20;;;;;;4993029;28;20535;-75
2022/03/09 13:03:43;;;;;;;20.00;13.53;;;12.80;64.10;;;;;;4990464;28;20446;-76
2022/03/09 13:06:37;;;;;;;21.43;13.00;;;12.40;62.00;;;;;;4988059;28;20175;-74
2022/03/09 13:09:03;;;;;;;18.63;12.93;;;12.20;61.30;;;;;;4990141;28;20410;-74
2022/03/09 13:11:32;;;;;;;20.90;13.23;;;12.30;62.30;;;;;;4999190;28;21256;-75
2022/03/09 13:13:58;;;;;;;18.40;11.70;;;12.40;62.00;;;;;;5000856;28;20440;-74
2022/03/09 13:16:26;;;;;;;17.10;11.50;;;12.50;63.20;;;;;;5003868;28;20413;-74
2022/03/09 13:18:58;;;;;;;17.73;10.90;;;11.90;59.20;;;;;;5012734;28;20429;-76
2022/03/09 13:21:25;;;;;;;20.23;12.27;;;12.00;61.00;;;;;;4992324;28;20481;-74
2022/03/09 13:23:50;;;;;;;16.07;10.63;;;12.20;60.20;;;;;;4989781;28;20429;-74
2022/03/09 13:26:18;;;;;;;20.53;11.23;;;12.30;59.40;;;;;;4991852;28;21028;-74
2022/03/09 13:28:49;;;;;;;19.70;10.77;;;12.20;59.20;;;;;;4990661;28;20179;-73
2022/03/09 13:31:17;;;;;;;18.20;11.17;;;12.30;59.00;;;;;;4986161;28;20475;-74
2022/03/09 13:33:43;;;;;;;20.67;11.80;;;12.40;59.50;;;;;;5006361;28;20422;-75
2022/03/09 13:36:14;;;;;;;16.27;10.80;;;12.40;58.90;;;;;;4992702;28;20867;-73
2022/03/09 13:38:42;;;;;;;18.93;11.90;;;12.50;58.40;;;;;;4991806;28;20434;-75
2022/03/09 13:41:09;;;;;;;16.20;11.13;;;12.40;58.20;;;;;;4992501;28;20789;-74
2022/03/09 13:43:39;;;;;;;17.27;11.27;;;12.40;58.10;;;;;;4991514;28;20446;-74
2022/03/09 13:46:11;;;;;;;20.47;11.30;;;12.50;57.60;;;;;;4991860;28;20412;-75
2022/03/09 13:48:36;;;;;;;16.80;11.03;;;12.50;56.60;;;;;;4992336;28;20410;-75
2022/03/09 13:51:03;;;;;;;13.00;9.27;;;12.40;56.00;;;;;;4992540;28;20453;-75
2022/03/09 13:53:39;;;;;;;15.33;10.00;;;12.40;56.50;;;;;;4991168;28;20179;-75
2022/03/09 13:56:20;;;;;;;18.60;12.07;;;12.10;55.80;;;;;;4992221;28;20489;-74
2022/03/09 13:58:46;;;;;;;19.50;11.77;;;12.10;54.90;;;;;;4992501;28;20903;-75
2022/03/09 14:01:15;;;;;;;11.67;8.17;;;12.10;54.00;;;;;;4991771;28;20830;-75
2022/03/09 14:03:43;;;;;;;13.60;9.23;;;12.00;53.20;;;;;;4991553;28;20829;-74
2022/03/09 14:06:36;;;;;;;12.43;9.20;;;12.10;52.70;;;;;;4992451;28;20422;-74